• Join FlightAware (Why Join?)
  • Login
  • US Flag 
Rudolph Flight #1: Arrived! 
01:02AM EST


 

Airport Tracker/Info


-or-


 

Live Flight TrackerFlight Track Log ✈ UAL1177 ✈ 24-Apr-2013 ✈ KSFO - KSTL

Flight Track Log - Related Links

Times and Time Zones

All times are in EDT time to prevent confusion due to time zone crossing. See the UAL1177 flight status page for this flight to view local times or setup timezone preferences in your user account.

Time Position Orientation Groundspeed Altitude Reporting Facility
EDT Latitude Longitude Course Direction KTS MPH feet Rate Location/Type
03:41PM 37.6667 -122.3167 63° Northeast 198 228 2,500  Level Northern Cal TRACON
03:43PM 37.7050 -122.2667 46° Northeast 230 265 5,300 3,120 Climbing Oakland Center
03:44PM 37.6626 -122.1998 72° East  Level FlightAware Approximate
03:44PM 37.7553 -122.1944 49° Northeast 268 308 9,100  Level Oakland Center
03:45PM 37.7224 -122.0384 70° East  Level FlightAware Approximate
03:45PM 37.7806 -122.0994 71° East 285 328 11,800  Level Oakland Center
03:46PM 37.7794 -121.8745 58° Northeast  Level FlightAware Approximate
03:46PM 37.8111 -121.9883 71° East 327 376 14,700  Level Oakland Center
03:47PM 37.8281 -121.7131 63° Northeast  Level FlightAware Approximate
03:47PM 37.8431 -121.8731 71° East 347 399 18,000  Level Oakland Center
03:48PM 37.8814 -121.7275 72° East 363 418 20,900 2,400 Climbing Oakland Center
03:49PM 37.9167 -121.5986 71° East 385 443 23,000 1,980 Climbing Oakland Center
03:50PM 37.9531 -121.4633 71° East 409 471 25,100 2,040 Climbing Oakland Center
03:51PM 37.9744 -121.3164 79° East 425 489 27,300 1,920 Climbing Oakland Center
03:52PM 37.9964 -121.1675 79° East 432 497 29,100 1,560 Climbing Oakland Center
03:53PM 38.0183 -121.0139 80° East 444 511 30,600 1,560 Climbing Oakland Center
03:54PM 38.0436 -120.8239 80° East 457 526 32,300 1,620 Climbing Oakland Center
03:55PM 38.0664 -120.6644 80° East 462 532 34,000 1,440 Climbing Oakland Center
03:56PM 38.0892 -120.5056 80° East 461 531 35,300 1,260 Climbing Oakland Center
03:57PM 38.1119 -120.3453 80° East 463 533 36,600 780 Climbing Oakland Center
03:58PM 38.1331 -120.1831 81° East 467 537 37,000 180 Climbing Oakland Center
03:59PM 38.1556 -120.0222 80° East 465 535 37,000 60 Level Oakland Center
04:00PM 38.1742 -119.8631 81° East 460 529 37,200 540 Climbing Oakland Center
04:01PM 38.1964 -119.7003 80° East 466 536 38,200 840 Climbing Oakland Center
04:02PM 38.2211 -119.5064 81° East 465 535 39,000 360 Climbing Oakland Center
04:03PM 38.2414 -119.3400 81° East 461 531 39,000  Level Oakland Center
04:04PM 38.2617 -119.1806 81° East 460 529 39,000  Level Oakland Center
04:06PM 38.3006 -118.8600 81° East 462 532 39,000  Level Oakland Center
04:07PM 38.3206 -118.6964 81° East 468 539 39,000  Level Oakland Center
04:08PM 38.3394 -118.5336 82° East 468 539 39,000  Level Oakland Center
04:09PM 38.3597 -118.3714 81° East 466 536 39,000  Level Oakland Center
04:10PM 38.3817 -118.1739 82° East 471 542 39,000  Level Oakland Center
04:11PM 38.4008 -118.0153 81° East 472 543 39,000  Level Oakland Center
04:12PM 38.4192 -117.8478 82° East 475 547 39,000  Level Oakland Center
04:13PM 38.4369 -117.6803 82° East 475 547 39,000  Level Oakland Center
04:14PM 38.4564 -117.5117 82° East 477 549 39,000  Level Salt Lake Center
04:15PM 38.4750 -117.3428 82° East 477 549 39,000  Level Oakland Center
04:16PM 38.4928 -117.1733 82° East 476 548 39,000  Level Oakland Center
04:17PM 38.5106 -117.0036 82° East 477 549 39,000  Level Salt Lake Center
04:18PM 38.5275 -116.8347 83° East 477 549 39,000  Level Salt Lake Center
04:19PM 38.5453 -116.6661 82° East 477 549 39,000  Level Oakland Center
04:20PM 38.5622 -116.4989 83° East 475 547 39,000  Level Oakland Center
04:21PM 38.5817 -116.2958 83° East 478 550 39,000  Level Oakland Center
04:22PM 38.5997 -116.1256 82° East 482 555 39,000  Level Oakland Center
04:23PM 38.6150 -115.9561 83° East 481 554 39,000  Level Salt Lake Center
04:24PM 38.6319 -115.7847 83° East 484 557 39,000  Level Salt Lake Center
04:26PM 38.6478 -115.6125 83° East 486 559 39,000  Level Salt Lake Center
04:27PM 38.6631 -115.4408 83° East 486 559 39,000  Level Salt Lake Center
04:28PM 38.6806 -115.2583 83° East 487 560 39,000  Level Salt Lake Center
04:29PM 38.6942 -115.0861 84° East 487 560 39,000  Level Salt Lake Center
04:30PM 38.7128 -114.9083 82° East 496 571 39,000  Level Salt Lake Center
04:31PM 38.7269 -114.7325 84° East 498 573 39,000  Level Salt Lake Center
04:32PM 38.7419 -114.5561 84° East 499 574 39,000  Level Salt Lake Center
04:33PM 38.7572 -114.3789 84° East 500 575 39,000  Level Salt Lake Center
04:34PM 38.7717 -114.2025 84° East 499 574 39,000  Level Salt Lake Center
04:35PM 38.7881 -113.9894 84° East 501 577 39,000  Level Salt Lake Center
04:36PM 38.8031 -113.8119 84° East 501 577 39,000  Level Salt Lake Center
04:37PM 38.8167 -113.6344 84° East 501 577 39,000  Level Salt Lake Center
04:38PM 38.8297 -113.4572 85° East 499 574 39,000  Level Salt Lake Center
04:39PM 38.8419 -113.2822 85° East 494 568 39,000  Level Salt Lake Center
04:40PM 38.8542 -113.1044 85° East 497 572 39,000  Level Salt Lake Center
04:41PM 38.8672 -112.9281 85° East 499 574 39,000  Level Salt Lake Center
04:42PM 38.8792 -112.7536 85° East 493 567 39,000  Level Salt Lake Center
04:43PM 38.8919 -112.5761 85° East 498 573 39,000  Level Salt Lake Center
04:44PM 38.9053 -112.3600 85° East 505 581 39,000  Level Salt Lake Center
04:45PM 38.9169 -112.1797 85° East 506 582 39,000  Level Salt Lake Center
04:46PM 38.9275 -112.0008 86° East 504 580 39,000  Level Salt Lake Center
04:48PM 38.9469 -111.6769 85° East 503 579 39,000  Level Denver Center
04:48PM 38.9506 -111.6422 82° East 504 580 39,000  Level Salt Lake Center
04:49PM 38.9603 -111.4622 86° East 505 581 39,000  Level Salt Lake Center
04:50PM 38.9703 -111.2819 86° East 506 582 39,000  Level Salt Lake Center
04:51PM 38.9800 -111.0806 86° East 511 588 39,000  Level Salt Lake Center
04:52PM 38.9881 -110.9067 87° East 511 588 39,000  Level Salt Lake Center
04:53PM 38.9997 -110.7033 86° East 512 589 39,000  Level Salt Lake Center
04:54PM 39.0094 -110.5303 86° East 510 587 39,000  Level Salt Lake Center
04:55PM 39.0197 -110.3269 86° East 512 589 39,000  Level Salt Lake Center
04:56PM 39.0283 -110.1514 86° East 516 594 39,000  Level Salt Lake Center
04:57PM 39.0356 -109.9483 87° East 512 589 39,000  Level Salt Lake Center
04:58PM 39.0383 -109.8292 88° East 510 587 39,000  Level Denver Center
04:59PM 39.0481 -109.6258 86° East 511 588 39,000  Level Denver Center
05:00PM 39.0550 -109.4517 87° East 511 588 39,000  Level Denver Center
05:01PM 39.0633 -109.2453 87° East 517 595 39,000  Level Denver Center
05:02PM 39.0700 -109.0714 87° East 512 589 39,000  Level Denver Center
05:03PM 39.0775 -108.8669 87° East 516 594 39,000  Level Denver Center
05:04PM 39.0831 -108.6917 88° East 516 594 39,000  Level Denver Center
05:05PM 39.0900 -108.4886 87° East 513 590 39,000  Level Denver Center
05:06PM 39.0950 -108.3147 88° East 511 588 39,000  Level Denver Center
05:07PM 39.1017 -108.1089 88° East 515 593 39,000  Level Denver Center
05:08PM 39.1064 -107.9331 88° East 515 593 39,000  Level Denver Center
05:09PM 39.1128 -107.7264 88° East 518 596 39,000  Level Denver Center
05:10PM 39.1164 -107.5489 88° East 519 597 39,000  Level Denver Center
05:11PM 39.1192 -107.3706 89° East 521 600 39,000  Level Denver Center
05:13PM 39.1236 -107.1642 88° East 519 597 39,000  Level Denver Center
05:14PM 39.1289 -106.9817 88° East 528 608 39,000  Level Denver Center
05:15PM 39.1319 -106.7750 89° East 519 597 39,000  Level Denver Center
05:16PM 39.1344 -106.5967 89° East 521 600 39,000  Level Denver Center
05:17PM 39.1367 -106.3894 89° East 520 598 39,000  Level Denver Center
05:18PM 39.1406 -106.2100 88° East 524 603 39,000  Level Denver Center
05:19PM 39.1397 -106.0069 90° East 523 602 39,000  Level Denver Center
05:20PM 39.1419 -105.8172 89° East 527 606 39,000  Level Denver Center
05:21PM 39.1439 -105.6272 89° East 526 605 39,000  Level Denver Center
05:22PM 39.1453 -105.4358 89° East 534 615 39,000  Level Denver Center
05:23PM 39.1467 -105.2436 89° East 533 613 39,000  Level Denver Center
05:24PM 39.1475 -105.0211 90° East 530 610 39,000  Level Denver Center
05:25PM 39.1472 -104.8283 90° East 537 618 39,000  Level Denver Center
05:26PM 39.1469 -104.6369 90° East 534 615 39,000  Level Denver Center
05:27PM 39.1461 -104.4464 90° East 532 612 39,000  Level Denver Center
05:28PM 39.1456 -104.2553 90° East 533 613 39,000  Level Denver Center
05:29PM 39.1450 -104.0617 90° East 536 617 39,000  Level Denver Center
05:30PM 39.1436 -103.8350 90° East 540 621 39,000  Level Denver Center
05:31PM 39.1414 -103.6408 91° East 539 620 39,000  Level Denver Center
05:32PM 39.1386 -103.4469 91° East 537 618 39,000  Level Denver Center
05:33PM 39.1361 -103.2536 91° East 537 618 39,000  Level Denver Center
05:34PM 39.1336 -103.0600 91° East 536 617 39,000  Level Denver Center
05:35PM 39.1314 -102.8681 91° East 533 613 39,000  Level Denver Center
05:36PM 39.1269 -102.6742 92° East 531 611 39,000  Level Denver Center
05:37PM 39.1225 -102.4614 91° East 532 612 39,000  Level Denver Center
05:38PM 39.1186 -102.2794 92° East 531 611 39,000  Level Denver Center
05:39PM 39.1142 -102.0667 91° East 532 612 39,000  Level Denver Center
05:40PM 39.1097 -101.8828 92° East 537 618 39,000  Level Denver Center
05:41PM 39.1050 -101.6725 92° East 536 617 39,000  Level Denver Center
05:42PM 39.0997 -101.4892 92° East 536 617 39,000  Level Denver Center
05:43PM 39.0928 -101.2739 92° East 540 621 39,000  Level Denver Center
05:45PM 39.0872 -101.0908 92° East 538 619 39,000  Level Denver Center
05:46PM 39.0806 -100.8778 92° East 537 618 39,000  Level Denver Center
05:47PM 39.0739 -100.6933 93° East 538 619 39,000  Level Denver Center
05:48PM 39.0664 -100.4792 93° East 540 621 39,000  Level Denver Center
05:49PM 39.0594 -100.2944 93° East 541 623 39,000  Level Denver Center
05:50PM 39.0508 -100.0789 93° East 543 625 39,000  Level Denver Center
05:51PM 39.0431 -99.8808 93° East 546 628 39,000  Level Denver Center
05:52PM 39.0347 -99.6933 93° East 547 629 39,000  Level Denver Center
05:53PM 39.0256 -99.4775 93° East 542 624 39,000  Level Denver Center
05:54PM 39.0250 -99.2889 90° East 548 631 39,000  Level Denver Center
05:55PM 39.0228 -99.0672 91° East 554 638 39,000  Level Denver Center
05:56PM 39.0194 -98.8797 91° East 553 636 39,000  Level Denver Center
05:57PM 39.0169 -98.7606 92° East 552 635 39,000  Level Kansas City Center
05:58PM 39.0133 -98.5600 91° East 558 642 39,000  Level Kansas City Center
05:59PM 39.0100 -98.3603 91° East 558 642 39,000  Level Kansas City Center
06:00PM 39.0056 -98.1586 92° East 562 647 39,000  Level Kansas City Center
06:01PM 39.0008 -97.9600 92° East 558 642 39,000  Level Kansas City Center
06:02PM 38.9972 -97.7247 91° East 560 644 39,000  Level Kansas City Center
06:03PM 38.9917 -97.5342 92° East 559 643 39,000  Level Kansas City Center
06:04PM 38.9861 -97.3111 92° East 559 643 39,000  Level Kansas City Center
06:05PM 38.9797 -97.1181 92° East 557 641 39,000  Level Kansas City Center
06:06PM 38.9731 -96.9175 92° East 560 644 39,000  Level Kansas City Center
06:07PM 38.9672 -96.7183 92° East 557 641 39,000  Level Kansas City Center
06:08PM 38.9614 -96.5183 92° East 557 641 39,000  Level Kansas City Center
06:09PM 38.9511 -96.2939 93° East 562 647 39,000  Level Kansas City Center
06:10PM 38.9419 -96.0700 93° East 563 648 39,000  Level Kansas City Center
06:11PM 38.9347 -95.8792 93° East 563 648 39,000  Level Kansas City Center
06:12PM 38.9258 -95.6533 93° East 570 656 39,000  Level Kansas City Center
06:13PM 38.9181 -95.4636 93° East 562 647 39,000  Level Kansas City Center
06:14PM 38.9089 -95.2428 93° East 563 648 39,000  Level Kansas City Center
06:15PM 38.8997 -95.0522 93° East 566 651 39,000  Level Kansas City Center
06:16PM 38.8883 -94.8319 94° East 561 646 39,000  Level Kansas City Center
06:17PM 38.8789 -94.6417 94° East 560 644 39,000 -180 Level Kansas City Center
06:18PM 38.8664 -94.4208 94° East 558 642 38,700 -600 Descending Kansas City Center
06:19PM 38.8569 -94.2300 94° East 561 646 37,800 -960 Descending Kansas City Center
06:20PM 38.8439 -94.0069 94° East 562 647 36,700 -1,020 Descending Kansas City Center
06:21PM 38.8319 -93.8156 95° East 564 649 35,800 -960 Descending Kansas City Center
06:22PM 38.8197 -93.5956 94° East 581 669 34,800 -960 Descending Kansas City Center
06:23PM 38.8072 -93.3853 94° East 585 673 33,900 -960 Descending Kansas City Center
06:24PM 38.7933 -93.1717 95° East 595 685 32,900 -1,020 Descending Kansas City Center
06:25PM 38.7797 -92.9594 95° East 595 685 31,900 -960 Descending Kansas City Center
06:26PM 38.7653 -92.7483 95° East 593 682 31,000 -600 Descending Kansas City Center
06:27PM 38.7506 -92.5381 95° East 590 679 30,700 -720 Descending Kansas City Center
06:29PM 38.7314 -92.2847 95° East 590 679 29,500 -1,680 Descending Kansas City Center
06:30PM 38.7161 -92.0733 95° East 590 679 27,300 -2,520 Descending Kansas City Center
06:31PM 38.7025 -91.8686 95° East 585 673 24,500 -2,640 Descending Kansas City Center
06:32PM 38.6903 -91.6761 95° East 552 635 21,900 -2,580 Descending Kansas City Center
06:32PM 38.6950 -91.5181 88° East 515 593 20,400 -2,700 Descending FAA TRACON SMA TRACON (SMA)
06:32PM 38.6944 -91.4631 91° East 506 582 19,600 -2,640 Descending FAA TRACON SMA TRACON (SMA)
06:33PM 38.6936 -91.3961 91° East 492 566 18,700 -2,400 Descending FAA TRACON SMA TRACON (SMA)
06:33PM 38.6925 -91.3436 92° East 481 554 18,000 -2,100 Descending FAA TRACON SMA TRACON (SMA)
06:34PM 38.6928 -91.2931 90° East 468 539 17,300 -2,820 Descending FAA TRACON SMA TRACON (SMA)
06:34PM 38.6939 -91.2300 89° East 461 531 16,200 -3,120 Descending FAA TRACON SMA TRACON (SMA)
06:34PM 38.6936 -91.1806 90° East 455 524 15,300 -1,800 Descending FAA TRACON SMA TRACON (SMA)
06:35PM 38.6928 -91.1325 91° East 445 512 15,000 -1,080 Descending FAA TRACON SMA TRACON (SMA)
06:35PM 38.6922 -91.0742 91° East 428 493 14,600 -1,440 Descending FAA TRACON SMA TRACON (SMA)
06:35PM 38.6928 -91.0283 89° East 422 486 14,100 -1,860 Descending FAA TRACON SMA TRACON (SMA)
06:35PM 38.6925 -90.9828 90° East 417 480 13,400 -2,400 Descending FAA TRACON SMA TRACON (SMA)
06:36PM 38.6925 -90.9275 90° East 407 468 12,500 -2,520 Descending FAA TRACON SMA TRACON (SMA)
06:36PM 38.6925 -90.8836 90° East 402 463 11,700 -2,160 Descending FAA TRACON SMA TRACON (SMA)
06:36PM 38.6939 -90.8406 88° East 396 456 11,100 -1,080 Descending FAA TRACON SMA TRACON (SMA)
06:37PM 38.6967 -90.7883 86° East 385 443 11,000 -480 Descending FAA TRACON SMA TRACON (SMA)
06:37PM 38.6989 -90.7461 86° East 384 442 10,800 -600 Descending FAA TRACON SMA TRACON (SMA)
06:38PM 38.7000 -90.7039 88° East 386 444 10,600 -780 Descending FAA TRACON SMA TRACON (SMA)
06:38PM 38.7025 -90.6519 86° East 384 442 10,300 -480 Descending FAA TRACON SMA TRACON (SMA)
06:38PM 38.7031 -90.6128 89° East 368 423 10,300 -180 Level FAA TRACON SMA TRACON (SMA)
06:39PM 38.7050 -90.5758 86° East 345 397 10,200 -780 Descending FAA TRACON SMA TRACON (SMA)
06:39PM 38.7064 -90.5319 88° East 320 368 9,800 -1,080 Descending FAA TRACON SMA TRACON (SMA)
06:39PM 38.7081 -90.4981 86° East 311 358 9,500 -780 Descending FAA TRACON SMA TRACON (SMA)
06:39PM 38.7022 -90.4661 103° East 308 354 9,300 -900 Descending FAA TRACON SMA TRACON (SMA)
06:40PM 38.6831 -90.4342 128° Southeast 296 341 8,900 -1,320 Descending FAA TRACON SMA TRACON (SMA)
06:40PM 38.6675 -90.4094 129° Southeast 289 333 8,400 -1,740 Descending FAA TRACON SMA TRACON (SMA)
06:40PM 38.6483 -90.3794 129° Southeast 285 328 7,800 -1,740 Descending FAA TRACON SMA TRACON (SMA)
06:41PM 38.6333 -90.3558 129° Southeast 279 321 7,300 -1,620 Descending FAA TRACON SMA TRACON (SMA)
06:41PM 38.6197 -90.3322 126° Southeast 273 314 6,700 -1,500 Descending FAA TRACON SMA TRACON (SMA)
06:42PM 38.6089 -90.2981 112° Southeast 271 312 6,300 -900 Descending FAA TRACON SMA TRACON (SMA)
06:42PM 38.6011 -90.2719 111° Southeast 259 298 6,100 -1,080 Descending FAA TRACON SMA TRACON (SMA)
06:42PM 38.5989 -90.2458 96° East 249 287 5,600 -1,260 Descending FAA TRACON SMA TRACON (SMA)
06:42PM 38.6019 -90.2144 83° East 232 267 5,300 -780 Descending FAA TRACON SMA TRACON (SMA)
06:43PM 38.6044 -90.1917 82° East 216 249 5,100 -1,080 Descending FAA TRACON SMA TRACON (SMA)
06:43PM 38.6122 -90.1661 69° East 210 242 4,600 -1,260 Descending FAA TRACON SMA TRACON (SMA)
06:43PM 38.6264 -90.1536 35° Northeast 205 236 4,300 -1,080 Descending FAA TRACON SMA TRACON (SMA)
06:44PM 38.6417 -90.1489 14° North 196 226 3,900 -1,680 Descending FAA TRACON SMA TRACON (SMA)
06:44PM 38.6600 -90.1547 346° North 182 209 3,200 -2,100 Descending FAA TRACON SMA TRACON (SMA)